Time;durP1;ratioP1;P1;durP2;ratioP2;P2;SDS_P1;SDS_P2;PMS_P1;PMS_P2;Temp;Humidity;BMP_temperature;BMP_pressure;BME280_temperature;BME280_humidity;BME280_pressure;Samples;Min_cycle;Max_cycle;Signal;HPM_P1;HPM_P2
2023/03/29 00:01:41;;;;;;;0.90;0.90;;;;;;;2.79;100.00;100403.63;5090367;28;20209;-73
2023/03/29 00:04:09;;;;;;;1.43;1.43;;;;;;;3.00;100.00;100439.66;5090616;28;20665;-74
2023/03/29 00:06:36;;;;;;;1.00;1.00;;;;;;;2.91;100.00;100446.91;5090459;28;20194;-74
2023/03/29 00:09:05;;;;;;;1.00;1.00;;;;;;;2.86;100.00;100431.28;5011851;28;20229;-73
2023/03/29 00:11:33;;;;;;;0.77;0.77;;;;;;;2.96;100.00;100450.59;5055184;28;20203;-73
2023/03/29 00:14:01;;;;;;;0.90;0.90;;;;;;;2.87;100.00;100434.75;5090790;28;20198;-72
2023/03/29 00:16:27;;;;;;;1.10;1.10;;;;;;;2.93;100.00;100448.72;5090484;28;20673;-74
2023/03/29 00:18:54;;;;;;;1.00;1.00;;;;;;;2.94;100.00;100452.19;5090381;28;20589;-72
2023/03/29 00:21:21;;;;;;;0.80;0.80;;;;;;;2.78;100.00;100418.94;5090391;28;20593;-73
2023/03/29 00:23:48;;;;;;;1.07;1.07;;;;;;;2.84;100.00;100455.06;5090612;28;20198;-73
2023/03/29 00:26:15;;;;;;;0.80;0.80;;;;;;;2.75;100.00;100428.97;5089982;28;20191;-74
2023/03/29 00:28:42;;;;;;;0.97;0.97;;;;;;;2.67;100.00;100420.06;5089537;28;20191;-74
2023/03/29 00:31:12;;;;;;;1.00;1.00;;;;;;;2.34;100.00;100353.53;5089654;28;20206;-72
2023/03/29 00:33:40;;;;;;;0.80;0.80;;;;;;;2.80;100.00;100437.78;5090558;28;20205;-73
2023/03/29 00:36:09;;;;;;;1.00;1.00;;;;;;;2.84;100.00;100455.97;5090949;28;20268;-73
2023/03/29 00:38:36;;;;;;;1.07;1.07;;;;;;;2.68;100.00;100453.38;5090987;28;20524;-73
2023/03/29 00:41:03;;;;;;;0.90;0.90;;;;;;;2.49;100.00;100436.22;5093652;28;20198;-73
2023/03/29 00:43:30;;;;;;;1.40;1.40;;;;;;;2.70;100.00;100450.91;5054933;28;20217;-73
2023/03/29 00:45:57;;;;;;;0.97;0.97;;;;;;;2.60;100.00;100443.56;5033426;28;20198;-73
2023/03/29 00:48:28;;;;;;;0.80;0.80;;;;;;;2.84;100.00;100445.72;5093066;28;20209;-74
2023/03/29 00:51:00;;;;;;;1.00;1.00;;;;;;;2.77;100.00;100435.06;5093545;28;20218;-73
2023/03/29 00:53:32;;;;;;;1.00;1.00;;;;;;;2.76;100.00;100446.09;5093624;28;20234;-74
2023/03/29 00:56:04;;;;;;;0.90;0.90;;;;;;;2.40;100.00;100374.31;5093864;28;20190;-73
2023/03/29 00:58:36;;;;;;;1.10;1.10;;;;;;;2.78;100.00;100435.13;5093206;28;20708;-73
2023/03/29 01:01:09;;;;;;;1.00;1.00;;;;;;;2.82;100.00;100446.41;5092292;28;20202;-75
2023/03/29 01:03:45;;;;;;;0.97;0.97;;;;;;;2.72;100.00;100445.06;5093232;28;20639;-72
2023/03/29 01:06:14;;;;;;;1.03;1.03;;;;;;;2.69;100.00;100454.28;5083232;28;20677;-73
2023/03/29 01:08:44;;;;;;;0.90;0.90;;;;;;;2.36;100.00;100389.41;5092857;28;20209;-73
2023/03/29 01:11:17;;;;;;;1.10;1.10;;;;;;;2.68;100.00;100432.03;5057849;28;20226;-74
2023/03/29 01:13:50;;;;;;;1.00;1.00;;;;;;;2.51;100.00;100415.81;5093312;28;20202;-74
2023/03/29 01:16:20;;;;;;;0.90;0.90;;;;;;;2.71;100.00;100460.38;5074881;28;20231;-73
2023/03/29 01:18:49;;;;;;;0.93;0.93;;;;;;;2.62;100.00;100462.44;5053128;28;20202;-73
2023/03/29 01:21:23;;;;;;;1.20;1.20;;;;;;;2.57;100.00;100469.00;5093566;28;20577;-74
2023/03/29 01:24:35;;;;;;;1.00;1.00;;;;;;;2.55;100.00;100456.13;5093016;28;20229;-73
2023/03/29 01:27:08;;;;;;;0.80;0.80;;;;;;;2.46;100.00;100469.28;4991706;28;20680;-76
2023/03/29 01:29:44;;;;;;;1.10;1.10;;;;;;;2.55;100.00;100468.03;4991132;28;20225;-74
2023/03/29 01:32:15;;;;;;;2.80;2.60;;;;;;;2.60;100.00;100475.16;4991401;28;20201;-74
2023/03/29 01:34:48;;;;;;;1.10;1.10;;;;;;;2.50;100.00;100476.34;4991562;28;20271;-73
2023/03/29 01:37:20;;;;;;;0.90;0.90;;;;;;;2.51;100.00;100479.78;4990742;28;20197;-72
2023/03/29 01:39:47;;;;;;;0.90;0.90;;;;;;;2.45;100.00;100474.34;4990093;28;20206;-74
2023/03/29 01:42:26;;;;;;;1.00;1.00;;;;;;;2.43;100.00;100476.81;4991137;28;20194;-74
2023/03/29 01:45:01;;;;;;;1.00;1.00;;;;;;;2.44;100.00;100483.69;4990591;28;20209;-74
2023/03/29 01:47:35;;;;;;;1.00;1.00;;;;;;;2.47;100.00;100478.75;4990979;28;20201;-74
2023/03/29 01:50:10;;;;;;;1.00;1.00;;;;;;;2.47;100.00;100477.84;4982809;28;20225;-74
2023/03/29 01:52:41;;;;;;;1.10;1.10;;;;;;;2.31;100.00;100471.06;4990778;28;20270;-72
2023/03/29 01:55:12;;;;;;;0.90;0.90;;;;;;;2.14;100.00;100459.00;4990623;28;20205;-73
2023/03/29 01:57:42;;;;;;;0.87;0.87;;;;;;;2.35;100.00;100482.34;4990707;28;20205;-73
2023/03/29 02:00:16;;;;;;;0.87;0.87;;;;;;;2.08;100.00;100435.69;4997035;28;20233;-74
2023/03/29 02:02:46;;;;;;;1.10;1.10;;;;;;;2.34;100.00;100476.34;5079645;28;20198;-74
2023/03/29 02:05:16;;;;;;;1.00;1.00;;;;;;;2.17;100.00;100469.44;5092021;28;20645;-73
2023/03/29 02:07:45;;;;;;;1.10;1.10;;;;;;;2.27;100.00;100491.28;5091945;28;20557;-74
2023/03/29 02:10:13;;;;;;;0.83;0.83;;;;;;;2.24;100.00;100481.75;5092379;28;20233;-73
2023/03/29 02:12:40;;;;;;;1.97;1.97;;;;;;;2.22;100.00;100492.69;5091964;28;20225;-74
2023/03/29 02:15:13;;;;;;;0.97;0.97;;;;;;;2.15;100.00;100494.03;5091974;28;20240;-74
2023/03/29 02:17:40;;;;;;;0.80;0.80;;;;;;;2.05;100.00;100481.53;5091868;28;20632;-73
2023/03/29 02:20:13;;;;;;;1.00;1.00;;;;;;;1.96;100.00;100455.50;5092106;28;20210;-73
2023/03/29 02:22:48;;;;;;;1.07;1.07;;;;;;;2.11;100.00;100494.66;5091577;28;20202;-73
2023/03/29 02:25:16;;;;;;;1.00;1.00;;;;;;;2.23;100.00;100486.78;5091099;28;20213;-72
2023/03/29 02:27:44;;;;;;;0.83;0.83;;;;;;;1.93;100.00;100475.75;5091864;28;20652;-73
2023/03/29 02:30:16;;;;;;;0.90;0.90;;;;;;;1.19;100.00;100342.16;5091854;28;20225;-74
2023/03/29 02:32:49;;;;;;;0.90;0.90;;;;;;;2.14;100.00;100496.53;5091420;28;20191;-73
2023/03/29 02:35:22;;;;;;;1.10;1.10;;;;;;;2.18;100.00;100499.31;5084246;28;20721;-74
2023/03/29 02:37:54;;;;;;;0.90;0.90;;;;;;;2.20;100.00;100504.53;5084635;28;20561;-72
2023/03/29 02:40:23;;;;;;;1.20;1.20;;;;;;;2.15;100.00;100516.16;5089113;28;20213;-75
2023/03/29 02:42:50;;;;;;;1.10;1.10;;;;;;;2.06;100.00;100480.75;5090381;28;20209;-74
2023/03/29 02:45:19;;;;;;;0.90;0.90;;;;;;;2.27;100.00;100509.19;5091223;28;20692;-73
2023/03/29 02:47:51;;;;;;;1.02;1.02;;;;;;;2.38;100.00;100521.75;5089830;28;20460;-72
2023/03/29 02:50:19;;;;;;;1.07;1.07;;;;;;;2.42;100.00;100517.69;5091446;28;20684;-76
2023/03/29 02:52:53;;;;;;;0.90;0.90;;;;;;;2.86;100.00;100491.88;5090649;28;20437;-75
2023/03/29 02:55:24;;;;;;;1.17;1.17;;;;;;;2.81;100.00;100480.53;5091741;28;20253;-80
2023/03/29 02:57:51;;;;;;;0.90;0.90;;;;;;;2.83;100.00;100525.00;5091667;28;20209;-76
2023/03/29 03:00:22;;;;;;;0.80;0.80;;;;;;;2.71;100.00;100520.09;5089387;28;20444;-77
2023/03/29 03:02:49;;;;;;;1.10;1.10;;;;;;;2.70;100.00;100540.50;5090843;28;20289;-74
2023/03/29 03:05:16;;;;;;;1.00;1.00;;;;;;;2.64;100.00;100547.88;5091248;28;20205;-75
2023/03/29 03:07:44;;;;;;;0.90;0.90;;;;;;;2.77;100.00;100545.16;5090670;28;20230;-75
2023/03/29 03:10:11;;;;;;;1.02;1.02;;;;;;;2.81;100.00;100547.97;5090431;28;20827;-75
2023/03/29 03:12:38;;;;;;;1.07;1.07;;;;;;;2.68;100.00;100554.91;5038939;28;20194;-75
2023/03/29 03:15:06;;;;;;;1.10;1.10;;;;;;;2.68;100.00;100545.53;5091145;28;20669;-74
2023/03/29 03:17:38;;;;;;;1.10;1.10;;;;;;;2.65;100.00;100547.94;5055515;28;20210;-75
2023/03/29 03:20:11;;;;;;;2.00;2.00;;;;;;;2.63;100.00;100551.22;5036850;28;20828;-76
2023/03/29 03:22:39;;;;;;;1.10;1.10;;;;;;;2.40;100.00;100545.75;5057398;28;20202;-76
2023/03/29 03:25:08;;;;;;;1.00;1.00;;;;;;;2.47;100.00;100570.88;5090989;28;20209;-75
2023/03/29 03:27:35;;;;;;;1.10;1.10;;;;;;;2.41;100.00;100564.53;5089425;28;20210;-76
2023/03/29 03:30:04;;;;;;;0.90;0.90;;;;;;;2.43;100.00;100579.16;5034629;28;20245;-75
2023/03/29 03:32:31;;;;;;;0.90;0.90;;;;;;;2.36;100.00;100566.84;5073621;28;20202;-76
2023/03/29 03:34:59;;;;;;;1.00;1.00;;;;;;;2.53;100.00;100559.22;5091456;28;20226;-75
2023/03/29 03:37:27;;;;;;;0.93;0.93;;;;;;;2.27;100.00;100543.31;5074726;28;20229;-75
2023/03/29 03:39:54;;;;;;;1.20;1.20;;;;;;;2.34;100.00;100567.56;5088668;28;20553;-75
2023/03/29 03:42:21;;;;;;;1.10;1.10;;;;;;;2.37;100.00;100571.16;5090140;28;20840;-76
2023/03/29 03:44:48;;;;;;;1.00;1.00;;;;;;;2.26;100.00;100572.25;5090609;28;20202;-75
2023/03/29 03:47:15;;;;;;;1.00;1.00;;;;;;;2.38;100.00;100579.72;5090455;28;20196;-75
2023/03/29 03:49:42;;;;;;;1.00;1.00;;;;;;;2.28;100.00;100577.47;5090699;28;20213;-76
2023/03/29 03:52:10;;;;;;;1.17;1.17;;;;;;;2.20;100.00;100554.00;5039053;28;20258;-74
2023/03/29 03:54:37;;;;;;;1.00;1.00;;;;;;;2.09;100.00;100578.09;5046106;28;20259;-74
2023/03/29 03:57:05;;;;;;;0.90;0.90;;;;;;;1.95;100.00;100545.75;5078145;28;20220;-76
2023/03/29 03:59:31;;;;;;;0.80;0.80;;;;;;;2.07;100.00;100589.91;5090282;28;20275;-76
2023/03/29 04:01:59;;;;;;;1.20;1.20;;;;;;;2.07;100.00;100597.56;5038796;28;20673;-74
2023/03/29 04:04:26;;;;;;;0.83;0.83;;;;;;;1.88;100.00;100597.34;5090991;28;20784;-75
2023/03/29 04:06:52;;;;;;;0.97;0.97;;;;;;;1.62;100.00;100579.59;5090596;28;20628;-75
2023/03/29 04:09:21;;;;;;;1.10;1.10;;;;;;;1.94;100.00;100606.25;5090383;28;20202;-75
2023/03/29 04:11:48;;;;;;;1.20;1.20;;;;;;;1.94;100.00;100607.91;5076304;28;20279;-75
2023/03/29 04:14:15;;;;;;;1.00;1.00;;;;;;;2.00;100.00;100606.56;5089848;28;20684;-76
2023/03/29 04:16:42;;;;;;;1.03;1.03;;;;;;;2.15;100.00;100614.25;5093997;28;20303;-76
2023/03/29 04:19:09;;;;;;;1.10;1.10;;;;;;;1.87;100.00;100583.66;5094673;28;20259;-75
2023/03/29 04:21:35;;;;;;;1.33;1.33;;;;;;;2.09;100.00;100611.34;5084742;28;20223;-73
2023/03/29 04:24:02;;;;;;;1.00;1.00;;;;;;;1.98;100.00;100595.41;5074066;28;20199;-75
2023/03/29 04:26:30;;;;;;;1.10;1.10;;;;;;;2.12;100.00;100619.19;5074202;28;20205;-76
2023/03/29 04:28:57;;;;;;;1.10;1.10;;;;;;;2.15;100.00;100605.69;5087925;28;20194;-75
2023/03/29 04:31:24;;;;;;;0.93;0.93;;;;;;;2.09;100.00;100621.56;5094298;28;20210;-76
2023/03/29 04:33:51;;;;;;;1.10;1.10;;;;;;;2.22;100.00;100625.69;5093954;28;20211;-74
2023/03/29 04:36:18;;;;;;;1.13;1.13;;;;;;;2.20;100.00;100619.63;5093844;28;20264;-76
2023/03/29 04:38:44;;;;;;;0.80;0.80;;;;;;;2.17;100.00;100622.00;5093897;28;20320;-75
2023/03/29 04:41:12;;;;;;;1.00;1.00;;;;;;;1.76;100.00;100540.38;5093694;28;20227;-76
2023/03/29 04:43:45;;;;;;;1.10;1.10;;;;;;;2.35;100.00;100635.84;5093318;28;20278;-76
2023/03/29 04:46:12;;;;;;;1.00;1.00;;;;;;;2.78;100.00;100628.88;5093993;28;20221;-75
2023/03/29 04:48:39;;;;;;;1.17;1.17;;;;;;;2.96;100.00;100640.09;5093919;28;20199;-75
2023/03/29 04:51:06;;;;;;;0.80;0.80;;;;;;;3.40;100.00;100625.38;5093199;28;20198;-75
2023/03/29 04:53:33;;;;;;;0.80;0.80;;;;;;;3.62;100.00;100647.88;5049668;28;20654;-76
2023/03/29 04:56:00;;;;;;;1.03;1.03;;;;;;;3.58;100.00;100661.34;5086030;28;20202;-75
2023/03/29 04:58:27;;;;;;;1.57;1.57;;;;;;;3.59;100.00;100651.97;5093328;28;20671;-76
2023/03/29 05:00:57;;;;;;;0.97;0.97;;;;;;;3.32;100.00;100633.47;5093299;28;20222;-75
2023/03/29 05:03:25;;;;;;;1.00;1.00;;;;;;;3.53;100.00;100657.69;5093370;28;20202;-75
2023/03/29 05:05:51;;;;;;;0.90;0.90;;;;;;;3.62;100.00;100654.69;5091696;28;20198;-75
2023/03/29 05:08:18;;;;;;;0.90;0.90;;;;;;;3.77;100.00;100660.59;5091047;28;20594;-78
2023/03/29 05:10:46;;;;;;;1.00;1.00;;;;;;;3.68;100.00;100662.69;5093096;28;20198;-75
2023/03/29 05:13:13;;;;;;;1.00;1.00;;;;;;;3.65;100.00;100677.91;5092678;28;20673;-75
2023/03/29 05:15:41;;;;;;;1.10;1.10;;;;;;;3.39;100.00;100658.59;5041593;28;20202;-73
2023/03/29 05:18:09;;;;;;;0.90;0.90;;;;;;;3.37;100.00;100666.22;5093368;28;20205;-77
2023/03/29 05:20:37;;;;;;;0.83;0.83;;;;;;;3.20;100.00;100666.13;5096209;28;20273;-78
2023/03/29 05:23:04;;;;;;;0.70;0.70;;;;;;;3.07;100.00;100656.91;5092223;28;20294;-77
2023/03/29 05:25:32;;;;;;;1.07;1.07;;;;;;;3.07;100.00;100668.84;5092911;28;20268;-78
2023/03/29 05:27:59;;;;;;;0.90;0.90;;;;;;;3.00;100.00;100667.63;5092691;28;20707;-77
2023/03/29 05:30:25;;;;;;;1.00;1.00;;;;;;;3.10;100.00;100669.00;5092754;28;20206;-73
2023/03/29 05:32:52;;;;;;;1.20;1.20;;;;;;;3.28;100.00;100675.97;5093056;28;20205;-78
2023/03/29 05:35:23;;;;;;;1.23;1.23;;;;;;;3.38;100.00;100683.38;5092896;28;20241;-77
2023/03/29 05:37:50;;;;;;;1.77;1.77;;;;;;;3.22;100.00;100660.28;5092622;28;20286;-74
2023/03/29 05:40:17;;;;;;;0.97;0.97;;;;;;;3.41;100.00;100688.66;5092643;28;20294;-75
2023/03/29 05:42:44;;;;;;;1.00;1.00;;;;;;;3.49;100.00;100676.25;5091673;28;20201;-80
2023/03/29 05:45:11;;;;;;;1.10;1.10;;;;;;;3.82;100.00;100683.09;5092680;28;20221;-76
2023/03/29 05:47:38;;;;;;;1.00;1.00;;;;;;;3.97;97.25;100688.13;5089325;28;20708;-77
2023/03/29 05:50:08;;;;;;;1.77;1.67;;;;;;;3.84;94.11;100672.94;5081547;28;20194;-75
2023/03/29 05:52:37;;;;;;;2.50;1.90;;;;;;;3.89;93.57;100679.16;5092434;28;20202;-77
2023/03/29 05:55:04;;;;;;;1.10;1.10;;;;;;;3.77;92.68;100694.84;5092434;28;20352;-77
2023/03/29 05:57:31;;;;;;;1.03;1.03;;;;;;;3.87;92.75;100691.94;5077836;28;20206;-79
2023/03/29 05:59:58;;;;;;;0.80;0.80;;;;;;;3.92;91.73;100669.09;5085448;28;20233;-80
2023/03/29 06:02:27;;;;;;;1.10;1.10;;;;;;;4.10;91.56;100695.69;5084529;28;20221;-78
2023/03/29 06:04:54;;;;;;;1.10;1.10;;;;;;;4.13;90.14;100690.69;5092119;28;20237;-81
2023/03/29 06:07:22;;;;;;;0.90;0.90;;;;;;;4.24;88.83;100694.69;5091796;28;20202;-80
2023/03/29 06:09:50;;;;;;;1.03;1.03;;;;;;;4.48;88.20;100690.75;5039975;28;20190;-74
2023/03/29 06:12:18;;;;;;;0.93;0.93;;;;;;;4.38;85.78;100688.53;5091819;28;20202;-74
2023/03/29 06:14:47;;;;;;;0.90;0.90;;;;;;;3.91;85.32;100618.59;5091310;28;20198;-74
2023/03/29 06:17:13;;;;;;;1.00;1.00;;;;;;;4.35;86.50;100692.63;5091849;28;20669;-73
2023/03/29 06:19:40;;;;;;;1.00;1.00;;;;;;;4.49;84.96;100686.50;5091850;28;20206;-73
2023/03/29 06:22:07;;;;;;;1.33;1.33;;;;;;;4.70;89.48;100687.53;5091649;28;20225;-76
2023/03/29 06:24:34;;;;;;;0.93;0.93;;;;;;;4.83;81.33;100692.44;5091743;28;20206;-79
2023/03/29 06:27:02;;;;;;;0.80;0.80;;;;;;;4.56;79.91;100674.81;5091481;28;20194;-75
2023/03/29 06:29:29;;;;;;;0.90;0.90;;;;;;;4.58;78.23;100678.34;5091550;28;20205;-76
2023/03/29 06:31:55;;;;;;;1.63;1.63;;;;;;;4.76;78.02;100697.19;5077462;28;20242;-77
2023/03/29 06:34:23;;;;;;;0.90;0.90;;;;;;;4.64;77.91;100681.22;5091539;28;20201;-76
2023/03/29 06:36:49;;;;;;;1.93;1.83;;;;;;;4.82;75.86;100718.03;5091717;28;20202;-76
2023/03/29 06:39:16;;;;;;;0.90;0.90;;;;;;;4.79;75.07;100712.75;5091494;28;20255;-76
2023/03/29 06:41:43;;;;;;;0.80;0.80;;;;;;;4.74;74.81;100703.97;5091670;28;20720;-79
2023/03/29 06:44:11;;;;;;;6.43;3.10;;;;;;;4.93;74.06;100716.84;5086127;28;20597;-76
2023/03/29 06:46:38;;;;;;;1.00;1.00;;;;;;;4.83;74.66;100724.94;5082868;28;20206;-77
2023/03/29 06:49:05;;;;;;;0.83;0.83;;;;;;;4.93;73.98;100722.88;5041868;28;20201;-76
2023/03/29 06:51:32;;;;;;;0.87;0.87;;;;;;;4.75;73.25;100708.28;5091073;28;20552;-76
2023/03/29 06:53:58;;;;;;;2.37;1.63;;;;;;;4.89;72.72;100728.69;5091034;28;20249;-77
2023/03/29 06:56:26;;;;;;;0.77;0.77;;;;;;;4.78;72.36;100675.91;5091109;28;20861;-78
2023/03/29 06:58:52;;;;;;;0.90;0.90;;;;;;;5.11;72.45;100717.72;5076894;28;20340;-77
2023/03/29 07:01:21;;;;;;;2.10;1.27;;;;;;;5.19;71.54;100721.53;5091283;28;20627;-77
2023/03/29 07:03:48;;;;;;;1.00;1.00;;;;;;;5.31;73.37;100711.84;5035422;28;20203;-75
2023/03/29 07:06:16;;;;;;;1.00;1.00;;;;;;;5.44;71.13;100719.28;5084981;28;20650;-74
2023/03/29 07:08:43;;;;;;;0.80;0.80;;;;;;;5.10;71.39;100692.81;5082143;28;20205;-76
2023/03/29 07:11:12;;;;;;;1.87;1.77;;;;;;;5.47;70.45;100716.84;5090887;28;20206;-74
2023/03/29 07:13:41;;;;;;;1.50;1.50;;;;;;;5.60;69.11;100719.97;5090957;28;20289;-74
2023/03/29 07:16:11;;;;;;;0.90;0.90;;;;;;;5.64;68.95;100717.59;5091021;28;20238;-76
2023/03/29 07:18:40;;;;;;;0.80;0.80;;;;;;;5.78;67.90;100726.81;5090625;28;20684;-75
2023/03/29 07:21:07;;;;;;;0.70;0.70;;;;;;;5.57;67.89;100719.81;5090742;28;20264;-75
2023/03/29 07:23:34;;;;;;;0.90;0.90;;;;;;;5.50;69.14;100724.69;5090634;28;20688;-75
2023/03/29 07:26:02;;;;;;;0.90;0.90;;;;;;;5.42;68.09;100728.59;5090982;28;20221;-75
2023/03/29 07:28:29;;;;;;;0.90;0.90;;;;;;;5.39;67.20;100725.91;5090734;28;20205;-75
2023/03/29 07:31:04;;;;;;;0.80;0.80;;;;;;;5.61;66.42;100732.00;5055676;28;20229;-75
2023/03/29 07:33:30;;;;;;;0.93;0.93;;;;;;;5.55;65.21;100734.31;5090519;28;20808;-75
2023/03/29 07:35:59;;;;;;;0.90;0.90;;;;;;;5.64;65.77;100745.00;5090624;28;20198;-75
2023/03/29 07:38:26;;;;;;;1.00;1.00;;;;;;;5.77;64.33;100739.63;5076729;28;20210;-76
2023/03/29 07:40:53;;;;;;;0.90;0.90;;;;;;;5.70;64.49;100735.91;5076583;28;20202;-74
2023/03/29 07:43:20;;;;;;;0.67;0.67;;;;;;;6.03;63.72;100738.22;5090565;28;20696;-75
2023/03/29 07:45:47;;;;;;;0.90;0.90;;;;;;;5.89;62.97;100735.03;5076201;28;20202;-74
2023/03/29 07:48:14;;;;;;;0.80;0.80;;;;;;;5.55;62.22;100696.63;5094693;28;20202;-75
2023/03/29 07:50:42;;;;;;;0.80;0.80;;;;;;;5.80;62.27;100745.78;5094569;28;20271;-75
2023/03/29 07:53:10;;;;;;;1.00;1.00;;;;;;;6.14;64.86;100743.00;5043434;28;20216;-77
2023/03/29 07:55:37;;;;;;;0.90;0.90;;;;;;;6.13;64.79;100710.38;5094534;28;20656;-79
2023/03/29 07:58:04;;;;;;;0.80;0.80;;;;;;;6.75;63.66;100745.56;5087161;28;20198;-75
2023/03/29 08:00:31;;;;;;;0.90;0.90;;;;;;;6.44;61.96;100727.97;5088509;28;20197;-76
2023/03/29 08:02:59;;;;;;;0.90;0.90;;;;;;;6.31;61.09;100757.47;5080632;28;20632;-77
2023/03/29 08:05:26;;;;;;;0.80;0.80;;;;;;;6.27;61.74;100749.56;5094521;28;20263;-79
2023/03/29 08:07:53;;;;;;;0.90;0.90;;;;;;;6.38;60.39;100749.22;5094262;28;20205;-74
2023/03/29 08:10:22;;;;;;;0.90;0.90;;;;;;;6.61;60.11;100741.53;5042769;28;20689;-77
2023/03/29 08:12:51;;;;;;;1.77;1.77;;;;;;;6.65;59.44;100727.97;5094314;28;20686;-76
2023/03/29 08:15:18;;;;;;;1.00;1.00;;;;;;;6.52;58.79;100725.72;5094614;28;20206;-77
2023/03/29 08:17:45;;;;;;;0.70;0.70;;;;;;;6.51;57.47;100721.38;5094452;28;20205;-77
2023/03/29 08:20:14;;;;;;;0.80;0.80;;;;;;;6.36;56.56;100730.22;5094657;28;20209;-77
2023/03/29 08:22:41;;;;;;;0.90;0.90;;;;;;;6.62;56.58;100725.28;5094321;28;20317;-76
2023/03/29 08:25:10;;;;;;;1.10;1.10;;;;;;;6.76;56.44;100721.56;5094083;28;20213;-74
2023/03/29 08:27:38;;;;;;;0.93;0.93;;;;;;;6.86;54.97;100723.69;5059010;28;20285;-74
2023/03/29 08:30:06;;;;;;;1.00;1.00;;;;;;;6.99;54.12;100710.50;5092564;28;20217;-73
2023/03/29 08:32:33;;;;;;;0.90;0.90;;;;;;;6.91;53.70;100717.03;5046565;28;20689;-75
2023/03/29 08:35:02;;;;;;;0.60;0.60;;;;;;;6.99;53.46;100706.19;5055122;28;20207;-71
2023/03/29 08:37:29;;;;;;;1.00;1.00;;;;;;;7.18;55.65;100725.84;5073738;28;20203;-75
2023/03/29 08:39:57;;;;;;;0.97;0.97;;;;;;;7.10;53.99;100714.34;5086503;28;20202;-76
2023/03/29 08:42:48;;;;;;;0.90;0.90;;;;;;;7.27;54.10;100708.16;5093718;28;20222;-78
2023/03/29 08:45:26;;;;;;;1.00;1.00;;;;;;;7.11;54.32;100718.69;5079440;28;20634;-76
2023/03/29 08:48:03;;;;;;;0.80;0.80;;;;;;;7.24;53.24;100720.91;5081222;28;20636;-76
2023/03/29 08:50:35;;;;;;;0.90;0.90;;;;;;;7.14;52.84;100711.06;5093625;28;20213;-76
2023/03/29 08:53:07;;;;;;;0.80;0.80;;;;;;;7.31;51.96;100712.56;5093673;28;20194;-71
2023/03/29 08:55:40;;;;;;;1.47;1.47;;;;;;;7.24;51.59;100707.16;5093464;28;20277;-73
2023/03/29 08:58:14;;;;;;;0.80;0.80;;;;;;;7.34;53.28;100714.41;5093158;28;20611;-73
2023/03/29 09:00:44;;;;;;;1.37;1.37;;;;;;;7.35;51.82;100698.97;5079248;28;20199;-74
2023/03/29 09:03:19;;;;;;;0.90;0.90;;;;;;;7.53;51.96;100727.16;5093091;28;20229;-74
2023/03/29 09:05:48;;;;;;;0.80;0.80;;;;;;;7.46;51.15;100710.59;5093062;28;20208;-75
2023/03/29 09:08:17;;;;;;;0.90;0.90;;;;;;;7.62;49.38;100700.84;5093131;28;20723;-75
2023/03/29 09:10:47;;;;;;;1.00;1.00;;;;;;;7.85;50.10;100698.25;5079696;28;20203;-74
2023/03/29 09:13:30;;;;;;;0.90;0.90;;;;;;;8.53;48.57;100697.19;5079376;28;20704;-75
2023/03/29 09:16:08;;;;;;;0.90;0.90;;;;;;;8.42;45.88;100704.56;5092247;28;20685;-74
2023/03/29 09:18:44;;;;;;;0.80;0.80;;;;;;;8.13;46.46;100720.78;5092147;28;20691;-73
2023/03/29 09:21:21;;;;;;;0.90;0.90;;;;;;;7.71;48.19;100714.06;5093476;28;20224;-74
2023/03/29 09:24:07;;;;;;;0.70;0.70;;;;;;;7.78;48.63;100685.94;5078823;28;20229;-73
2023/03/29 09:26:39;;;;;;;0.77;0.77;;;;;;;7.80;49.07;100727.31;5093455;28;20225;-74
2023/03/29 09:29:25;;;;;;;0.97;0.97;;;;;;;7.43;48.56;100715.63;5040817;28;20198;-73
2023/03/29 09:31:55;;;;;;;0.90;0.90;;;;;;;7.56;48.71;100716.09;5092513;28;20210;-74
2023/03/29 09:34:23;;;;;;;0.80;0.80;;;;;;;7.15;47.59;100586.47;5084389;28;20207;-75
2023/03/29 09:36:53;;;;;;;0.90;0.90;;;;;;;8.07;47.51;100714.50;5087099;28;20590;-75
2023/03/29 09:39:22;;;;;;;0.77;0.77;;;;;;;8.14;46.20;100719.94;5092660;28;20210;-75
2023/03/29 09:41:53;;;;;;;0.70;0.70;;;;;;;8.25;46.95;100707.38;5092509;28;20233;-75
2023/03/29 09:44:24;;;;;;;0.80;0.80;;;;;;;8.08;46.34;100709.41;5057746;28;20197;-75
2023/03/29 09:46:54;;;;;;;0.90;0.90;;;;;;;8.01;45.14;100715.16;5053499;28;20207;-75
2023/03/29 09:49:26;;;;;;;1.63;1.53;;;;;;;8.35;43.59;100715.53;5092540;28;20237;-75
2023/03/29 09:51:59;;;;;;;0.80;0.80;;;;;;;8.22;42.61;100707.28;5092485;28;20206;-72
2023/03/29 09:54:26;;;;;;;2.00;1.90;;;;;;;8.02;44.02;100719.53;5092228;28;20217;-73
2023/03/29 09:56:53;;;;;;;0.87;0.87;;;;;;;7.93;45.58;100721.75;5092098;28;20700;-73
2023/03/29 09:59:21;;;;;;;1.20;1.20;;;;;;;8.05;45.62;100680.88;5056564;28;20283;-76
2023/03/29 10:01:48;;;;;;;0.80;0.80;;;;;;;8.17;43.02;100721.75;5091933;28;20560;-76
2023/03/29 10:04:15;;;;;;;1.13;1.13;;;;;;;8.02;41.11;100729.84;5090143;28;20225;-74
2023/03/29 10:06:46;;;;;;;0.90;0.90;;;;;;;8.09;42.46;100720.59;5080549;28;20198;-74
2023/03/29 10:09:19;;;;;;;0.70;0.70;;;;;;;8.03;43.51;100728.13;5025649;28;20203;-72
2023/03/29 10:11:49;;;;;;;0.93;0.93;;;;;;;7.82;43.66;100736.88;5080244;28;20209;-73
2023/03/29 10:14:19;;;;;;;0.90;0.90;;;;;;;7.89;44.17;100741.41;5091768;28;20209;-72
2023/03/29 10:16:55;;;;;;;0.90;0.90;;;;;;;8.01;41.38;100737.53;5091676;28;20643;-72
2023/03/29 10:19:26;;;;;;;0.70;0.70;;;;;;;7.94;41.53;100737.31;5056183;28;20220;-73
2023/03/29 10:21:54;;;;;;;1.10;1.10;;;;;;;8.27;41.29;100737.63;5091487;28;20209;-72
2023/03/29 10:24:23;;;;;;;0.83;0.83;;;;;;;8.16;42.45;100713.13;5091696;28;20201;-74
2023/03/29 10:26:54;;;;;;;1.07;1.07;;;;;;;8.16;42.51;100731.22;5091366;28;20225;-74
2023/03/29 10:29:21;;;;;;;0.70;0.70;;;;;;;8.56;42.24;100723.13;5082515;28;20242;-75
2023/03/29 10:31:50;;;;;;;0.70;0.70;;;;;;;8.71;41.34;100720.16;5035576;28;20218;-73
2023/03/29 10:34:18;;;;;;;0.77;0.77;;;;;;;8.82;40.48;100739.50;5091442;28;20234;-73
2023/03/29 10:36:52;;;;;;;0.80;0.80;;;;;;;8.83;40.44;100720.56;5091568;28;20202;-74
2023/03/29 10:39:19;;;;;;;0.87;0.87;;;;;;;8.93;41.17;100718.31;5043491;28;20202;-75
2023/03/29 10:41:51;;;;;;;0.80;0.80;;;;;;;9.18;41.02;100719.06;5091997;28;20681;-80
2023/03/29 10:44:30;;;;;;;0.90;0.90;;;;;;;8.76;41.53;100719.50;5092011;28;20205;-77
2023/03/29 10:47:08;;;;;;;0.70;0.70;;;;;;;8.30;41.86;100696.44;5089669;28;20213;-77
2023/03/29 10:49:41;;;;;;;1.00;1.00;;;;;;;8.60;42.15;100726.69;5092069;28;20216;-78
2023/03/29 10:52:08;;;;;;;0.73;0.73;;;;;;;8.75;42.11;100735.81;5092103;28;20216;-77
2023/03/29 10:54:36;;;;;;;0.77;0.77;;;;;;;7.78;41.57;100537.94;5039866;28;20230;-78
2023/03/29 10:57:07;;;;;;;0.77;0.77;;;;;;;8.98;41.20;100718.47;5091657;28;20263;-79
2023/03/29 10:59:40;;;;;;;0.70;0.70;;;;;;;8.74;40.71;100699.59;5091998;28;20777;-78
2023/03/29 11:02:36;;;;;;;0.90;0.90;;;;;;;9.27;40.48;100694.38;5092134;28;20226;-77
2023/03/29 11:05:15;;;;;;;0.80;0.80;;;;;;;8.83;40.61;100717.97;5091896;28;20200;-77
2023/03/29 11:07:55;;;;;;;0.70;0.70;;;;;;;8.77;41.05;100704.88;5091861;28;20217;-76
2023/03/29 11:10:33;;;;;;;1.33;1.33;;;;;;;8.63;40.51;100695.78;5093254;28;20208;-72
2023/03/29 11:13:10;;;;;;;0.80;0.80;;;;;;;8.74;40.20;100699.59;5092165;28;20210;-73
2023/03/29 11:15:51;;;;;;;0.70;0.70;;;;;;;8.97;40.35;100688.25;5039225;28;20197;-74
2023/03/29 11:18:47;;;;;;;0.77;0.77;;;;;;;8.83;40.41;100668.84;5091510;28;20595;-73
2023/03/29 11:21:24;;;;;;;0.80;0.80;;;;;;;8.78;40.58;100704.91;5089358;28;20198;-74
2023/03/29 11:24:03;;;;;;;0.80;0.80;;;;;;;8.57;40.92;100685.22;5091259;28;20249;-74
2023/03/29 11:26:40;;;;;;;0.90;0.90;;;;;;;8.73;41.03;100684.91;5091244;28;20213;-73
2023/03/29 11:29:14;;;;;;;0.77;0.77;;;;;;;8.85;41.00;100698.22;5091271;28;20228;-74
2023/03/29 11:31:55;;;;;;;1.35;1.35;;;;;;;9.14;41.12;100687.06;5091114;28;20204;-75
2023/03/29 11:34:31;;;;;;;0.80;0.80;;;;;;;8.42;40.15;100608.09;5091227;28;20202;-74
2023/03/29 11:37:02;;;;;;;0.95;0.95;;;;;;;9.08;40.31;100670.47;5085890;28;20206;-74
2023/03/29 11:39:36;;;;;;;0.90;0.90;;;;;;;9.38;39.87;100692.09;5081373;28;20205;-74
2023/03/29 11:42:08;;;;;;;0.80;0.80;;;;;;;9.13;39.62;100695.66;5079240;28;20227;-73